sensor_id;sensor_type;location;lat;lon;timestamp;pressure;altitude;pressure_sealevel;temperature;humidity
76397;BME280;66045;51.622;5.526;2023-04-01T00:00:46;99127.72;;;15.00;61.24
76397;BME280;66045;51.622;5.526;2023-04-01T00:03:11;99133.00;;;15.00;61.19
76397;BME280;66045;51.622;5.526;2023-04-01T00:05:37;99133.00;;;15.00;61.36
76397;BME280;66045;51.622;5.526;2023-04-01T00:08:02;99137.44;;;14.99;61.11
76397;BME280;66045;51.622;5.526;2023-04-01T00:10:28;99142.75;;;14.99;61.32
76397;BME280;66045;51.622;5.526;2023-04-01T00:12:53;99139.25;;;14.99;61.33
76397;BME280;66045;51.622;5.526;2023-04-01T00:15:19;99145.41;;;14.99;61.38
76397;BME280;66045;51.622;5.526;2023-04-01T00:17:44;99136.66;;;14.97;61.22
76397;BME280;66045;51.622;5.526;2023-04-01T00:20:10;99137.50;;;14.98;61.34
76397;BME280;66045;51.622;5.526;2023-04-01T00:22:36;99143.72;;;14.97;61.30
76397;BME280;66045;51.622;5.526;2023-04-01T00:25:02;99143.72;;;14.97;61.35
76397;BME280;66045;51.622;5.526;2023-04-01T00:27:27;99146.38;;;14.97;61.45
76397;BME280;66045;51.622;5.526;2023-04-01T00:29:52;99142.03;;;14.96;61.39
76397;BME280;66045;51.622;5.526;2023-04-01T00:32:18;99145.53;;;14.96;61.40
76397;BME280;66045;51.622;5.526;2023-04-01T00:34:43;99143.88;;;14.94;61.44
76397;BME280;66045;51.622;5.526;2023-04-01T00:37:09;99142.06;;;14.94;61.30
76397;BME280;66045;51.622;5.526;2023-04-01T00:39:35;99145.56;;;14.95;61.43
76397;BME280;66045;51.622;5.526;2023-04-01T00:42:03;99148.22;;;14.95;61.38
76397;BME280;66045;51.622;5.526;2023-04-01T00:44:33;99146.44;;;14.95;61.48
76397;BME280;66045;51.622;5.526;2023-04-01T00:47:00;99157.97;;;14.94;61.58
76397;BME280;66045;51.622;5.526;2023-04-01T00:49:33;99165.06;;;14.94;61.41
76397;BME280;66045;51.622;5.526;2023-04-01T00:52:01;99161.47;;;14.95;61.42
76397;BME280;66045;51.622;5.526;2023-04-01T00:54:29;99165.91;;;14.94;61.46
76397;BME280;66045;51.622;5.526;2023-04-01T00:57:10;99164.25;;;14.92;61.49
76397;BME280;66045;51.622;5.526;2023-04-01T00:59:41;99159.81;;;14.92;61.44
76397;BME280;66045;51.622;5.526;2023-04-01T01:02:10;99168.56;;;14.94;61.44
76397;BME280;66045;51.622;5.526;2023-04-01T01:04:36;99167.75;;;14.92;61.47
76397;BME280;66045;51.622;5.526;2023-04-01T01:07:42;99168.66;;;14.93;61.46
76397;BME280;66045;51.622;5.526;2023-04-01T01:10:16;99170.41;;;14.92;61.59
76397;BME280;66045;51.622;5.526;2023-04-01T01:15:32;99165.09;;;14.92;61.80
76397;BME280;66045;51.622;5.526;2023-04-01T01:18:21;99173.06;;;14.92;61.88
76397;BME280;66045;51.622;5.526;2023-04-01T01:29:22;99180.00;;;14.95;62.10
76397;BME280;66045;51.622;5.526;2023-04-01T01:32:03;99179.13;;;14.96;62.24
76397;BME280;66045;51.622;5.526;2023-04-01T01:34:34;99181.75;;;14.96;62.28
76397;BME280;66045;51.622;5.526;2023-04-01T01:37:07;99187.91;;;14.96;62.10
76397;BME280;66045;51.622;5.526;2023-04-01T01:39:35;99180.88;;;14.95;62.23
76397;BME280;66045;51.622;5.526;2023-04-01T01:42:04;99193.22;;;14.96;62.07
76397;BME280;66045;51.622;5.526;2023-04-01T01:44:32;99194.06;;;14.97;62.29
76397;BME280;66045;51.622;5.526;2023-04-01T01:46:59;99195.78;;;14.98;62.25
76397;BME280;66045;51.622;5.526;2023-04-01T01:49:27;99200.22;;;14.97;62.27
76397;BME280;66045;51.622;5.526;2023-04-01T01:51:55;99199.38;;;14.97;62.01
76397;BME280;66045;51.622;5.526;2023-04-01T01:54:21;99201.09;;;14.98;62.17
76397;BME280;66045;51.622;5.526;2023-04-01T01:56:49;99202.88;;;14.97;62.20
76397;BME280;66045;51.622;5.526;2023-04-01T01:59:17;99202.88;;;14.97;62.49
76397;BME280;66045;51.622;5.526;2023-04-01T02:01:49;99203.72;;;14.98;62.15
76397;BME280;66045;51.622;5.526;2023-04-01T02:04:17;99201.09;;;14.98;62.23
76397;BME280;66045;51.622;5.526;2023-04-01T02:06:56;99208.13;;;14.99;62.20
76397;BME280;66045;51.622;5.526;2023-04-01T02:09:25;99212.56;;;14.98;62.22
76397;BME280;66045;51.622;5.526;2023-04-01T02:12:01;99212.56;;;14.98;62.14
76397;BME280;66045;51.622;5.526;2023-04-01T02:14:49;99220.44;;;15.00;62.16
76397;BME280;66045;51.622;5.526;2023-04-01T02:17:19;99218.72;;;14.99;62.27
76397;BME280;66045;51.622;5.526;2023-04-01T02:19:57;99224.03;;;14.99;62.37
76397;BME280;66045;51.622;5.526;2023-04-01T02:22:25;99211.63;;;14.99;62.25
76397;BME280;66045;51.622;5.526;2023-04-01T02:24:54;99217.78;;;15.00;62.22
76397;BME280;66045;51.622;5.526;2023-04-01T02:27:22;99226.66;;;14.99;62.43
76397;BME280;66045;51.622;5.526;2023-04-01T02:29:48;99223.16;;;14.98;62.22
76397;BME280;66045;51.622;5.526;2023-04-01T02:32:16;99218.72;;;14.99;62.22
76397;BME280;66045;51.622;5.526;2023-04-01T02:34:43;99216.06;;;14.99;62.33
76397;BME280;66045;51.622;5.526;2023-04-01T02:37:08;99226.66;;;14.99;62.42
76397;BME280;66045;51.622;5.526;2023-04-01T02:39:35;99229.25;;;15.00;62.41
76397;BME280;66045;51.622;5.526;2023-04-01T02:42:01;99232.75;;;15.01;62.42
76397;BME280;66045;51.622;5.526;2023-04-01T02:44:26;99228.38;;;15.00;62.41
76397;BME280;66045;51.622;5.526;2023-04-01T02:46:51;99229.25;;;15.00;62.38
76397;BME280;66045;51.622;5.526;2023-04-01T02:49:17;99228.38;;;15.00;62.09
76397;BME280;66045;51.622;5.526;2023-04-01T02:51:43;99232.81;;;14.99;62.47
76397;BME280;66045;51.622;5.526;2023-04-01T02:54:08;99229.25;;;15.00;62.39
76397;BME280;66045;51.622;5.526;2023-04-01T02:56:33;99235.47;;;14.99;62.45
76397;BME280;66045;51.622;5.526;2023-04-01T02:58:59;99245.13;;;15.00;62.38
76397;BME280;66045;51.622;5.526;2023-04-01T03:01:24;99239.84;;;15.00;62.21
76397;BME280;66045;51.622;5.526;2023-04-01T03:03:50;99246.06;;;14.99;62.29
76397;BME280;66045;51.622;5.526;2023-04-01T03:06:16;99239.84;;;15.00;62.40
76397;BME280;66045;51.622;5.526;2023-04-01T03:08:42;99250.50;;;14.99;62.40
76397;BME280;66045;51.622;5.526;2023-04-01T03:11:09;99246.94;;;15.00;62.27
76397;BME280;66045;51.622;5.526;2023-04-01T03:13:34;99248.72;;;14.99;62.26
76397;BME280;66045;51.622;5.526;2023-04-01T03:16:00;99251.38;;;14.99;62.35
76397;BME280;66045;51.622;5.526;2023-04-01T03:18:25;99248.75;;;14.98;62.34
76397;BME280;66045;51.622;5.526;2023-04-01T03:20:51;99254.94;;;14.98;62.28
76397;BME280;66045;51.622;5.526;2023-04-01T03:23:17;99250.50;;;14.99;62.29
76397;BME280;66045;51.622;5.526;2023-04-01T03:25:44;99261.09;;;14.99;62.30
76397;BME280;66045;51.622;5.526;2023-04-01T03:28:10;99249.66;;;14.98;61.98
76397;BME280;66045;51.622;5.526;2023-04-01T03:30:35;99251.41;;;14.98;62.23
76397;BME280;66045;51.622;5.526;2023-04-01T03:33:01;99255.84;;;14.97;62.47
76397;BME280;66045;51.622;5.526;2023-04-01T03:35:27;99251.41;;;14.98;62.27
76397;BME280;66045;51.622;5.526;2023-04-01T03:37:53;99262.00;;;14.98;62.25
76397;BME280;66045;51.622;5.526;2023-04-01T03:40:19;99265.56;;;14.98;62.35
76397;BME280;66045;51.622;5.526;2023-04-01T03:42:44;99262.00;;;14.98;62.22
76397;BME280;66045;51.622;5.526;2023-04-01T03:45:10;99265.59;;;14.97;62.36
76397;BME280;66045;51.622;5.526;2023-04-01T03:47:37;99266.44;;;14.97;62.30
76397;BME280;66045;51.622;5.526;2023-04-01T03:50:04;99263.81;;;14.97;62.29
76397;BME280;66045;51.622;5.526;2023-04-01T03:52:30;99280.56;;;14.98;62.28
76397;BME280;66045;51.622;5.526;2023-04-01T03:54:55;99282.34;;;14.97;62.20
76397;BME280;66045;51.622;5.526;2023-04-01T03:57:21;99279.78;;;14.96;62.22
76397;BME280;66045;51.622;5.526;2023-04-01T03:59:46;99278.84;;;14.97;62.31
76397;BME280;66045;51.622;5.526;2023-04-01T04:02:11;99277.13;;;14.96;62.29
76397;BME280;66045;51.622;5.526;2023-04-01T04:04:37;99278.84;;;14.97;62.22
76397;BME280;66045;51.622;5.526;2023-04-01T04:07:02;99289.47;;;14.95;62.30
76397;BME280;66045;51.622;5.526;2023-04-01T04:09:30;99279.78;;;14.96;62.31
76397;BME280;66045;51.622;5.526;2023-04-01T04:11:55;99285.06;;;14.96;62.35
76397;BME280;66045;51.622;5.526;2023-04-01T04:14:22;99290.38;;;14.96;62.56
76397;BME280;66045;51.622;5.526;2023-04-01T04:16:47;99289.47;;;14.95;62.41
76397;BME280;66045;51.622;5.526;2023-04-01T04:19:12;99289.47;;;14.95;62.24
76397;BME280;66045;51.622;5.526;2023-04-01T04:21:39;99290.38;;;14.96;62.59
76397;BME280;66045;51.622;5.526;2023-04-01T04:24:05;99304.47;;;14.96;62.45
76397;BME280;66045;51.622;5.526;2023-04-01T04:26:30;99303.63;;;14.96;62.45
76397;BME280;66045;51.622;5.526;2023-04-01T04:28:56;99295.66;;;14.96;62.39
76397;BME280;66045;51.622;5.526;2023-04-01T04:31:22;99308.03;;;14.95;62.35
76397;BME280;66045;51.622;5.526;2023-04-01T04:33:48;99308.03;;;14.95;62.50
76397;BME280;66045;51.622;5.526;2023-04-01T04:36:14;99307.13;;;14.96;62.39
76397;BME280;66045;51.622;5.526;2023-04-01T04:38:39;99302.72;;;14.95;62.41
76397;BME280;66045;51.622;5.526;2023-04-01T04:41:15;99314.22;;;14.96;62.56
76397;BME280;66045;51.622;5.526;2023-04-01T04:43:49;99309.81;;;14.95;62.53
76397;BME280;66045;51.622;5.526;2023-04-01T04:46:15;99310.69;;;14.95;62.33
76397;BME280;66045;51.622;5.526;2023-04-01T04:48:40;99309.94;;;14.92;62.52
76397;BME280;66045;51.622;5.526;2023-04-01T04:51:06;99312.47;;;14.95;62.50
76397;BME280;66045;51.622;5.526;2023-04-01T04:53:32;99315.97;;;14.95;62.43
76397;BME280;66045;51.622;5.526;2023-04-01T04:55:57;99323.06;;;14.95;62.26
76397;BME280;66045;51.622;5.526;2023-04-01T04:58:22;99323.91;;;14.95;62.30
76397;BME280;66045;51.622;5.526;2023-04-01T05:00:48;99330.16;;;14.94;62.50
76397;BME280;66045;51.622;5.526;2023-04-01T05:03:13;99324.84;;;14.94;62.55
76397;BME280;66045;51.622;5.526;2023-04-01T05:05:39;99342.47;;;14.95;62.49
76397;BME280;66045;51.622;5.526;2023-04-01T05:08:05;99345.19;;;14.94;62.34
76397;BME280;66045;51.622;5.526;2023-04-01T05:10:31;99343.41;;;14.94;62.43
76397;BME280;66045;51.622;5.526;2023-04-01T05:12:58;99344.25;;;14.95;62.54
76397;BME280;66045;51.622;5.526;2023-04-01T05:15:23;99356.66;;;14.94;62.45
76397;BME280;66045;51.622;5.526;2023-04-01T05:17:49;99351.44;;;14.93;62.27
76397;BME280;66045;51.622;5.526;2023-04-01T05:20:15;99353.19;;;14.92;62.61
76397;BME280;66045;51.622;5.526;2023-04-01T05:22:41;99363.72;;;14.94;62.30
76397;BME280;66045;51.622;5.526;2023-04-01T05:25:07;99364.66;;;14.93;62.35
76397;BME280;66045;51.622;5.526;2023-04-01T05:27:32;99371.69;;;14.94;62.41
76397;BME280;66045;51.622;5.526;2023-04-01T05:29:58;99369.06;;;14.92;62.40
76397;BME280;66045;51.622;5.526;2023-04-01T05:32:23;99373.53;;;14.92;62.39
76397;BME280;66045;51.622;5.526;2023-04-01T05:34:53;99377.03;;;14.92;62.20
76397;BME280;66045;51.622;5.526;2023-04-01T05:37:18;99374.38;;;14.92;62.29
76397;BME280;66045;51.622;5.526;2023-04-01T05:39:44;99379.69;;;14.92;62.35
76397;BME280;66045;51.622;5.526;2023-04-01T05:42:10;99387.63;;;14.92;62.47
76397;BME280;66045;51.622;5.526;2023-04-01T05:44:35;99392.91;;;14.92;62.41
76397;BME280;66045;51.622;5.526;2023-04-01T05:47:01;99389.41;;;14.92;62.38
76397;BME280;66045;51.622;5.526;2023-04-01T05:49:27;99395.56;;;14.92;62.40
76397;BME280;66045;51.622;5.526;2023-04-01T05:51:52;99394.72;;;14.92;62.35
76397;BME280;66045;51.622;5.526;2023-04-01T05:54:18;99399.16;;;14.91;62.40
76397;BME280;66045;51.622;5.526;2023-04-01T05:56:43;99407.09;;;14.91;62.28
76397;BME280;66045;51.622;5.526;2023-04-01T05:59:10;99410.59;;;14.92;62.42
76397;BME280;66045;51.622;5.526;2023-04-01T06:01:36;99412.41;;;14.91;62.37
76397;BME280;66045;51.622;5.526;2023-04-01T06:04:02;99414.19;;;14.91;62.42
76397;BME280;66045;51.622;5.526;2023-04-01T06:06:29;99422.13;;;14.91;62.49
76397;BME280;66045;51.622;5.526;2023-04-01T06:08:56;99420.34;;;14.91;62.33
76397;BME280;66045;51.622;5.526;2023-04-01T06:11:44;99432.66;;;14.92;62.51
76397;BME280;66045;51.622;5.526;2023-04-01T06:14:26;99426.56;;;14.90;62.49
76397;BME280;66045;51.622;5.526;2023-04-01T06:22:36;99443.31;;;14.91;62.54
76397;BME280;66045;51.622;5.526;2023-04-01T06:25:21;99452.16;;;14.90;62.43
76397;BME280;66045;51.622;5.526;2023-04-01T06:31:06;99463.66;;;14.90;62.53
76397;BME280;66045;51.622;5.526;2023-04-01T06:39:51;99477.81;;;14.89;62.50
76397;BME280;66045;51.622;5.526;2023-04-01T06:42:43;99475.16;;;14.89;62.48
76397;BME280;66045;51.622;5.526;2023-04-01T06:50:56;99479.59;;;14.89;62.58
76397;BME280;66045;51.622;5.526;2023-04-01T06:53:29;99488.50;;;14.86;62.52
76397;BME280;66045;51.622;5.526;2023-04-01T06:56:02;99481.50;;;14.85;62.49
76397;BME280;66045;51.622;5.526;2023-04-01T06:58:51;99495.63;;;14.84;62.67
76397;BME280;66045;51.622;5.526;2023-04-01T07:01:41;99500.16;;;14.82;62.60
76397;BME280;66045;51.622;5.526;2023-04-01T07:04:40;99504.59;;;14.82;62.64
76397;BME280;66045;51.622;5.526;2023-04-01T07:07:31;99509.06;;;14.80;62.65
76397;BME280;66045;51.622;5.526;2023-04-01T07:09:59;99503.81;;;14.78;62.59
76397;BME280;66045;51.622;5.526;2023-04-01T07:15:13;99527.72;;;14.76;62.68
76397;BME280;66045;51.622;5.526;2023-04-01T07:17:40;99523.31;;;14.75;62.66
76397;BME280;66045;51.622;5.526;2023-04-01T07:20:20;99528.63;;;14.75;62.68
76397;BME280;66045;51.622;5.526;2023-04-01T07:22:56;99530.47;;;14.73;62.63
76397;BME280;66045;51.622;5.526;2023-04-01T07:25:26;99535.81;;;14.72;62.79
76397;BME280;66045;51.622;5.526;2023-04-01T07:27:58;99541.09;;;14.72;62.96
76397;BME280;66045;51.622;5.526;2023-04-01T07:30:28;99542.03;;;14.71;62.70
76397;BME280;66045;51.622;5.526;2023-04-01T07:33:04;99547.34;;;14.71;62.79
76397;BME280;66045;51.622;5.526;2023-04-01T07:35:38;99544.72;;;14.69;62.45
76397;BME280;66045;51.622;5.526;2023-04-01T07:38:42;99555.31;;;14.69;62.80
76397;BME280;66045;51.622;5.526;2023-04-01T07:44:01;99568.56;;;14.69;62.66
76397;BME280;66045;51.622;5.526;2023-04-01T07:46:38;99574.69;;;14.71;62.77
76397;BME280;66045;51.622;5.526;2023-04-01T07:49:14;99563.22;;;14.71;62.62
76397;BME280;66045;51.622;5.526;2023-04-01T07:51:59;99575.50;;;14.73;62.56
76397;BME280;66045;51.622;5.526;2023-04-01T07:57:23;99579.88;;;14.74;62.58
76397;BME280;66045;51.622;5.526;2023-04-01T08:02:39;99589.53;;;14.75;62.44
76397;BME280;66045;51.622;5.526;2023-04-01T08:10:51;99599.25;;;14.75;62.39
76397;BME280;66045;51.622;5.526;2023-04-01T08:13:39;99603.69;;;14.74;62.34
76397;BME280;66045;51.622;5.526;2023-04-01T08:21:23;99621.38;;;14.74;62.16
76397;BME280;66045;51.622;5.526;2023-04-01T08:23:52;99619.63;;;14.73;62.53
76397;BME280;66045;51.622;5.526;2023-04-01T08:26:35;99619.63;;;14.73;62.47
76397;BME280;66045;51.622;5.526;2023-04-01T08:29:08;99621.41;;;14.72;62.30
76397;BME280;66045;51.622;5.526;2023-04-01T08:31:58;99625.91;;;14.70;62.43
76397;BME280;66045;51.622;5.526;2023-04-01T08:34:34;99631.22;;;14.70;62.42
76397;BME280;66045;51.622;5.526;2023-04-01T08:37:08;99634.75;;;14.69;62.45
76397;BME280;66045;51.622;5.526;2023-04-01T08:39:49;99637.41;;;14.69;62.46
76397;BME280;66045;51.622;5.526;2023-04-01T08:56:23;99659.47;;;14.70;62.75
76397;BME280;66045;51.622;5.526;2023-04-01T09:15:23;99698.50;;;14.65;62.67
76397;BME280;66045;51.622;5.526;2023-04-01T09:18:19;99700.25;;;14.64;62.70
76397;BME280;66045;51.622;5.526;2023-04-01T09:27:08;99705.59;;;14.63;62.67
76397;BME280;66045;51.622;5.526;2023-04-01T09:32:40;99711.78;;;14.62;62.67
76397;BME280;66045;51.622;5.526;2023-04-01T09:38:11;99715.38;;;14.61;62.78
76397;BME280;66045;51.622;5.526;2023-04-01T09:41:10;99727.75;;;14.60;62.82
76397;BME280;66045;51.622;5.526;2023-04-01T09:49:30;99722.38;;;14.62;62.85
76397;BME280;66045;51.622;5.526;2023-04-01T10:52:11;99779.66;;;14.66;63.29
76397;BME280;66045;51.622;5.526;2023-04-01T11:14:02;99803.50;;;14.64;63.47
76397;BME280;66045;51.622;5.526;2023-04-01T11:19:46;99809.75;;;14.63;63.53
76397;BME280;66045;51.622;5.526;2023-04-01T11:22:41;99810.56;;;14.65;63.65
76397;BME280;66045;51.622;5.526;2023-04-01T11:25:29;99810.50;;;14.67;63.63
76397;BME280;66045;51.622;5.526;2023-04-01T11:36:26;99831.50;;;14.73;63.56
76397;BME280;66045;51.622;5.526;2023-04-01T11:45:26;99835.84;;;14.75;63.68
76397;BME280;66045;51.622;5.526;2023-04-01T11:48:36;99834.94;;;14.76;63.65
76397;BME280;66045;51.622;5.526;2023-04-01T11:53:51;99841.09;;;14.77;63.12
76397;BME280;66045;51.622;5.526;2023-04-01T12:07:23;99866.81;;;14.73;63.63
76397;BME280;66045;51.622;5.526;2023-04-01T12:09:55;99872.13;;;14.73;63.61
76397;BME280;66045;51.622;5.526;2023-04-01T12:15:12;99882.72;;;14.73;63.58
76397;BME280;66045;51.622;5.526;2023-04-01T12:18:00;99880.09;;;14.72;63.74
76397;BME280;66045;51.622;5.526;2023-04-01T12:28:41;99896.09;;;14.69;63.69
76397;BME280;66045;51.622;5.526;2023-04-01T12:34:06;99905.84;;;14.67;63.73
76397;BME280;66045;51.622;5.526;2023-04-01T12:37:41;99900.53;;;14.67;63.79
76397;BME280;66045;51.622;5.526;2023-04-01T12:42:44;99911.97;;;14.69;63.62
76397;BME280;66045;51.622;5.526;2023-04-01T12:48:19;99912.06;;;14.66;63.75
76397;BME280;66045;51.622;5.526;2023-04-01T13:02:30;99927.09;;;14.65;63.86
76397;BME280;66045;51.622;5.526;2023-04-01T13:13:06;99941.31;;;14.61;64.01
76397;BME280;66045;51.622;5.526;2023-04-01T13:29:32;99967.78;;;14.61;64.01
76397;BME280;66045;51.622;5.526;2023-04-01T13:32:20;99952.75;;;14.62;64.11
76397;BME280;66045;51.622;5.526;2023-04-01T13:35:20;99971.31;;;14.62;64.10
76397;BME280;66045;51.622;5.526;2023-04-01T13:41:13;99965.06;;;14.64;64.20
76397;BME280;66045;51.622;5.526;2023-04-01T13:43:54;99972.03;;;14.67;64.07
76397;BME280;66045;51.622;5.526;2023-04-01T13:49:11;99973.72;;;14.71;64.18
76397;BME280;66045;51.622;5.526;2023-04-01T13:52:10;99977.16;;;14.73;64.41
76397;BME280;66045;51.622;5.526;2023-04-01T13:57:20;99984.81;;;14.85;64.54
76397;BME280;66045;51.622;5.526;2023-04-01T14:00:03;99984.66;;;14.90;64.61
76397;BME280;66045;51.622;5.526;2023-04-01T14:02:51;99993.31;;;14.96;64.44
76397;BME280;66045;51.622;5.526;2023-04-01T14:11:17;99996.44;;;15.11;64.54
76397;BME280;66045;51.622;5.526;2023-04-01T14:17:08;100009.50;;;15.17;64.65
76397;BME280;66045;51.622;5.526;2023-04-01T14:25:33;100010.22;;;15.24;64.80
76397;BME280;66045;51.622;5.526;2023-04-01T14:28:25;100013.66;;;15.26;64.62
76397;BME280;66045;51.622;5.526;2023-04-01T14:33:50;100016.19;;;15.30;64.72
76397;BME280;66045;51.622;5.526;2023-04-01T14:39:36;100027.56;;;15.34;64.77
76397;BME280;66045;51.622;5.526;2023-04-01T14:47:25;100030.03;;;15.40;65.10
76397;BME280;66045;51.622;5.526;2023-04-01T14:50:03;100034.38;;;15.42;65.47
76397;BME280;66045;51.622;5.526;2023-04-01T14:52:33;100035.22;;;15.44;65.57
76397;BME280;66045;51.622;5.526;2023-04-01T14:55:15;100035.25;;;15.43;64.88
76397;BME280;66045;51.622;5.526;2023-04-01T14:58:19;100034.38;;;15.42;64.90
76397;BME280;66045;51.622;5.526;2023-04-01T15:00:47;100040.56;;;15.43;64.77
76397;BME280;66045;51.622;5.526;2023-04-01T15:03:23;100051.16;;;15.43;64.44
76397;BME280;66045;51.622;5.526;2023-04-01T15:28:13;100080.59;;;15.34;63.53
76397;BME280;66045;51.622;5.526;2023-04-01T15:33:50;100081.53;;;15.33;63.35
76397;BME280;66045;51.622;5.526;2023-04-01T15:39:17;100084.25;;;15.30;63.12
76397;BME280;66045;51.622;5.526;2023-04-01T15:50:13;100091.47;;;15.25;63.18
76397;BME280;66045;51.622;5.526;2023-04-01T15:55:31;100093.28;;;15.22;63.13
76397;BME280;66045;51.622;5.526;2023-04-01T15:58:24;100101.28;;;15.21;62.96
76397;BME280;66045;51.622;5.526;2023-04-01T16:01:11;100099.53;;;15.20;63.18
76397;BME280;66045;51.622;5.526;2023-04-01T16:03:49;100110.13;;;15.20;63.00
76397;BME280;66045;51.622;5.526;2023-04-01T16:20:24;100122.53;;;15.19;62.99
76397;BME280;66045;51.622;5.526;2023-04-01T16:25:33;100118.09;;;15.20;62.87
76397;BME280;66045;51.622;5.526;2023-04-01T16:28:24;100122.53;;;15.19;62.87
76397;BME280;66045;51.622;5.526;2023-04-01T16:31:06;100129.56;;;15.20;62.67
76397;BME280;66045;51.622;5.526;2023-04-01T16:34:01;100131.31;;;15.21;62.79
76397;BME280;66045;51.622;5.526;2023-04-01T16:36:34;100133.97;;;15.21;62.85
76397;BME280;66045;51.622;5.526;2023-04-01T16:39:11;100133.97;;;15.21;62.72
76397;BME280;66045;51.622;5.526;2023-04-01T16:45:06;100156.97;;;15.21;62.66
76397;BME280;66045;51.622;5.526;2023-04-01T16:47:32;100156.06;;;15.20;62.81
76397;BME280;66045;51.622;5.526;2023-04-01T16:50:13;100162.22;;;15.22;62.93
76397;BME280;66045;51.622;5.526;2023-04-01T16:52:53;100171.09;;;15.21;62.90
76397;BME280;66045;51.622;5.526;2023-04-01T16:55:34;100179.88;;;15.24;62.88
76397;BME280;66045;51.622;5.526;2023-04-01T16:58:01;100179.88;;;15.24;63.02
76397;BME280;66045;51.622;5.526;2023-04-01T17:00:30;100190.41;;;15.25;62.94
76397;BME280;66045;51.622;5.526;2023-04-01T17:05:49;100203.66;;;15.25;62.68
76397;BME280;66045;51.622;5.526;2023-04-01T17:14:28;100221.38;;;15.23;62.78
76397;BME280;66045;51.622;5.526;2023-04-01T17:17:05;100224.88;;;15.25;63.69
76397;BME280;66045;51.622;5.526;2023-04-01T17:22:39;100241.53;;;15.30;65.22
76397;BME280;66045;51.622;5.526;2023-04-01T17:36:45;100267.81;;;15.39;66.72
76397;BME280;66045;51.622;5.526;2023-04-01T17:39:42;100269.59;;;15.39;66.88
76397;BME280;66045;51.622;5.526;2023-04-01T17:42:19;100280.22;;;15.39;66.88
76397;BME280;66045;51.622;5.526;2023-04-01T17:47:52;100293.50;;;15.37;66.85
76397;BME280;66045;51.622;5.526;2023-04-01T17:51:07;100309.38;;;15.39;66.92
76397;BME280;66045;51.622;5.526;2023-04-01T17:55:52;100309.38;;;15.39;67.09
76397;BME280;66045;51.622;5.526;2023-04-01T17:58:22;100314.69;;;15.39;66.98
76397;BME280;66045;51.622;5.526;2023-04-01T18:06:29;100335.88;;;15.40;66.61
76397;BME280;66045;51.622;5.526;2023-04-01T18:09:23;100341.16;;;15.40;66.88
76397;BME280;66045;51.622;5.526;2023-04-01T18:12:04;100345.56;;;15.41;66.89
76397;BME280;66045;51.622;5.526;2023-04-01T18:14:43;100360.53;;;15.42;66.84
76397;BME280;66045;51.622;5.526;2023-04-01T18:17:43;100357.03;;;15.42;66.78
76397;BME280;66045;51.622;5.526;2023-04-01T18:25:33;100390.59;;;15.43;66.70
76397;BME280;66045;51.622;5.526;2023-04-01T18:30:32;100398.53;;;15.43;66.59
76397;BME280;66045;51.622;5.526;2023-04-01T18:33:09;100408.28;;;15.42;66.41
76397;BME280;66045;51.622;5.526;2023-04-01T18:36:03;100422.41;;;15.43;66.40
76397;BME280;66045;51.622;5.526;2023-04-01T18:38:38;100426.84;;;15.42;66.37
76397;BME280;66045;51.622;5.526;2023-04-01T18:47:27;100448.09;;;15.41;66.20
76397;BME280;66045;51.622;5.526;2023-04-01T18:50:13;100452.53;;;15.40;66.18
76397;BME280;66045;51.622;5.526;2023-04-01T18:52:44;100456.94;;;15.40;66.21
76397;BME280;66045;51.622;5.526;2023-04-01T18:55:30;100467.59;;;15.38;66.10
76397;BME280;66045;51.622;5.526;2023-04-01T19:01:17;100478.22;;;15.38;66.05
76397;BME280;66045;51.622;5.526;2023-04-01T19:04:08;100486.25;;;15.35;66.12
76397;BME280;66045;51.622;5.526;2023-04-01T19:06:44;100495.94;;;15.36;65.94
76397;BME280;66045;51.622;5.526;2023-04-01T19:20:47;100525.19;;;15.32;65.94
76397;BME280;66045;51.622;5.526;2023-04-01T19:23:53;100540.22;;;15.31;65.78
76397;BME280;66045;51.622;5.526;2023-04-01T19:26:29;100542.06;;;15.29;65.89
76397;BME280;66045;51.622;5.526;2023-04-01T19:31:44;100546.50;;;15.27;65.81
76397;BME280;66045;51.622;5.526;2023-04-01T19:40:13;100556.28;;;15.25;65.83
76397;BME280;66045;51.622;5.526;2023-04-01T19:48:44;100564.31;;;15.20;65.74
76397;BME280;66045;51.622;5.526;2023-04-01T19:51:30;100581.09;;;15.21;65.86
76397;BME280;66045;51.622;5.526;2023-04-01T19:54:13;100584.63;;;15.20;65.84
76397;BME280;66045;51.622;5.526;2023-04-01T19:57:00;100590.84;;;15.19;65.75
76397;BME280;66045;51.622;5.526;2023-04-01T19:59:55;100603.25;;;15.18;65.72
76397;BME280;66045;51.622;5.526;2023-04-01T20:02:33;100602.41;;;15.16;65.82
76397;BME280;66045;51.622;5.526;2023-04-01T20:05:35;100617.44;;;15.14;65.83
76397;BME280;66045;51.622;5.526;2023-04-01T20:08:11;100624.50;;;15.15;65.77
76397;BME280;66045;51.622;5.526;2023-04-01T20:15:57;100640.44;;;15.14;65.67
76397;BME280;66045;51.622;5.526;2023-04-01T20:18:46;100646.66;;;15.13;65.67
76397;BME280;66045;51.622;5.526;2023-04-01T20:23:47;100664.31;;;15.12;65.71
76397;BME280;66045;51.622;5.526;2023-04-01T20:26:21;100666.09;;;15.12;65.74
76397;BME280;66045;51.622;5.526;2023-04-01T20:29:53;100671.44;;;15.10;65.63
76397;BME280;66045;51.622;5.526;2023-04-01T20:32:13;100673.22;;;15.10;65.83
76397;BME280;66045;51.622;5.526;2023-04-01T20:40:51;100691.78;;;15.07;65.69
76397;BME280;66045;51.622;5.526;2023-04-01T20:43:48;100693.56;;;15.06;65.45
76397;BME280;66045;51.622;5.526;2023-04-01T21:00:53;100729.88;;;15.01;65.41
76397;BME280;66045;51.622;5.526;2023-04-01T21:06:10;100739.59;;;15.00;66.01
76397;BME280;66045;51.622;5.526;2023-04-01T21:11:51;100749.38;;;14.98;65.36
76397;BME280;66045;51.622;5.526;2023-04-01T21:20:18;100771.47;;;14.97;65.29
76397;BME280;66045;51.622;5.526;2023-04-01T21:31:27;100791.84;;;14.94;65.28
76397;BME280;66045;51.622;5.526;2023-04-01T21:34:25;100805.97;;;14.94;65.12
76397;BME280;66045;51.622;5.526;2023-04-01T21:45:02;100827.22;;;14.91;64.75
76397;BME280;66045;51.622;5.526;2023-04-01T21:58:32;100859.06;;;14.88;64.96